METAR Data
IDs: Format: Raw Decoded Include TAF

Data at: 0733 UTC 01 Aug 2021

LSZH 010720Z 28004KT 250V320 8000 -RA FEW004 SCT009 BKN060 14/13 Q1012 NOSIG